Time;durP1;ratioP1;P1;durP2;ratioP2;P2;SDS_P1;SDS_P2;PMS_P1;PMS_P2;Temp;Humidity;BMP_temperature;BMP_pressure;BME280_temperature;BME280_humidity;BME280_pressure;Samples;Min_cycle;Max_cycle;Signal;HPM_P1;HPM_P2
2021/07/02 00:02:21;;;;;;;6.47;3.88;;;;;;;;;;6181532;23;20626;-88
2021/07/02 00:05:26;;;;;;;11.20;4.15;;;;;;;;;;6181464;23;20303;-88
2021/07/02 00:08:31;;;;;;;7.30;4.70;;;;;;;;;;6180462;23;20243;-89
2021/07/02 00:11:37;;;;;;;10.23;4.47;;;;;;;;;;6182463;22;20209;-90
2021/07/02 00:14:42;;;;;;;8.82;4.28;;;;;;;;;;6184073;23;20163;-88
2021/07/02 00:17:47;;;;;;;8.07;4.07;;;;;;;;;;6182636;23;20176;-89
2021/07/02 00:20:52;;;;;;;5.60;3.70;;;;;;;;;;6181363;23;20171;-90
2021/07/02 00:23:57;;;;;;;10.48;4.50;;;;;;;;;;6182020;23;20167;-90
2021/07/02 00:27:04;;;;;;;11.43;4.40;;;;;;;;;;6181130;23;20259;-90
2021/07/02 00:30:10;;;;;;;9.50;4.35;;;;;;;;;;6180872;23;20187;-89
2021/07/02 00:33:15;;;;;;;8.95;4.22;;;;;;;;;;6180441;23;20167;-89
2021/07/02 00:36:19;;;;;;;10.48;4.15;;;;;;;;;;6181636;23;20220;-89
2021/07/02 00:39:25;;;;;;;7.57;4.05;;;;;;;;;;6180870;23;20184;-89
2021/07/02 00:42:32;;;;;;;11.68;4.68;;;;;;;;;;6182166;23;20176;-89
2021/07/02 00:45:37;;;;;;;12.75;4.70;;;;;;;;;;6183557;23;20192;-90
2021/07/02 00:48:42;;;;;;;9.10;4.18;;;;;;;;;;6182728;23;20516;-89
2021/07/02 00:51:48;;;;;;;11.73;4.35;;;;;;;;;;6181323;23;20179;-89
2021/07/02 00:54:54;;;;;;;13.68;4.60;;;;;;;;;;6182023;23;20246;-89
2021/07/02 00:58:04;;;;;;;9.02;4.07;;;;;;;;;;6181713;23;20165;-89
2021/07/02 01:01:14;;;;;;;9.93;4.55;;;;;;;;;;6181194;23;20175;-90
2021/07/02 01:04:19;;;;;;;11.05;4.80;;;;;;;;;;6180919;23;20176;-89
2021/07/02 01:07:26;;;;;;;13.52;5.05;;;;;;;;;;6182006;23;20167;-90
2021/07/02 01:10:31;;;;;;;11.48;4.95;;;;;;;;;;6181267;23;20164;-87
2021/07/02 01:13:38;;;;;;;8.38;4.80;;;;;;;;;;6184409;22;20168;-89
2021/07/02 01:16:43;;;;;;;10.38;5.00;;;;;;;;;;6183777;23;20679;-89
2021/07/02 01:19:49;;;;;;;11.23;4.90;;;;;;;;;;6182166;23;20204;-88
2021/07/02 01:22:59;;;;;;;12.73;4.80;;;;;;;;;;6183176;23;20249;-90
2021/07/02 01:26:11;;;;;;;13.90;4.90;;;;;;;;;;6190857;23;20164;-86
2021/07/02 01:29:17;;;;;;;9.55;4.55;;;;;;;;;;6199798;23;20243;-88
2021/07/02 01:32:23;;;;;;;9.20;4.43;;;;;;;;;;6178983;23;20171;-90
2021/07/02 01:35:29;;;;;;;10.10;4.85;;;;;;;;;;6180726;23;20176;-89
2021/07/02 01:38:36;;;;;;;10.55;4.82;;;;;;;;;;6182172;23;20171;-89
2021/07/02 01:41:41;;;;;;;12.57;5.10;;;;;;;;;;6182995;23;20238;-89
2021/07/02 01:44:47;;;;;;;11.15;4.45;;;;;;;;;;6181342;23;20248;-89
2021/07/02 01:47:54;;;;;;;9.80;4.68;;;;;;;;;;6181885;23;20176;-90
2021/07/02 01:51:02;;;;;;;9.02;4.75;;;;;;;;;;6180335;23;20162;-89
2021/07/02 01:54:09;;;;;;;9.55;4.68;;;;;;;;;;6182623;23;20176;-90
2021/07/02 01:57:19;;;;;;;13.32;5.15;;;;;;;;;;6182082;23;20239;-89
2021/07/02 02:00:25;;;;;;;14.20;5.07;;;;;;;;;;6199855;23;20195;-89
2021/07/02 02:03:39;;;;;;;10.27;4.97;;;;;;;;;;6198689;23;20175;-91
2021/07/02 02:06:44;;;;;;;9.25;4.18;;;;;;;;;;6199592;23;20175;-90
2021/07/02 02:09:50;;;;;;;11.55;4.60;;;;;;;;;;6181849;23;20755;-87
2021/07/02 02:12:55;;;;;;;9.63;4.22;;;;;;;;;;6181981;23;20192;-89
2021/07/02 02:16:02;;;;;;;12.52;4.63;;;;;;;;;;6181040;23;20167;-90
2021/07/02 02:19:08;;;;;;;11.80;5.07;;;;;;;;;;6179650;23;20163;-90
2021/07/02 02:22:14;;;;;;;12.68;4.63;;;;;;;;;;6180366;23;20241;-89
2021/07/02 02:25:24;;;;;;;11.80;4.57;;;;;;;;;;6179320;23;20175;-90
2021/07/02 02:28:31;;;;;;;10.25;4.38;;;;;;;;;;6178760;23;20170;-90
2021/07/02 02:31:36;;;;;;;11.05;5.10;;;;;;;;;;6180007;23;20257;-90
2021/07/02 02:34:47;;;;;;;9.40;4.88;;;;;;;;;;6198495;23;20216;-90
2021/07/02 02:37:51;;;;;;;13.27;4.90;;;;;;;;;;6196451;23;20534;-91
2021/07/02 02:40:58;;;;;;;9.77;4.88;;;;;;;;;;6179150;23;20172;-90
2021/07/02 02:44:04;;;;;;;9.00;5.00;;;;;;;;;;6178794;23;20223;-89
2021/07/02 02:47:10;;;;;;;12.30;4.70;;;;;;;;;;6179193;23;20299;-89
2021/07/02 02:50:16;;;;;;;8.68;5.03;;;;;;;;;;6182326;22;20196;-90
2021/07/02 02:53:21;;;;;;;14.27;4.95;;;;;;;;;;6182315;23;20172;-90
2021/07/02 02:56:28;;;;;;;10.60;5.43;;;;;;;;;;6183646;23;20202;-90
2021/07/02 02:59:35;;;;;;;11.40;4.60;;;;;;;;;;6182773;23;20214;-88
2021/07/02 03:02:41;;;;;;;11.23;4.80;;;;;;;;;;6182749;23;20191;-88
2021/07/02 03:05:47;;;;;;;9.50;4.82;;;;;;;;;;6182725;22;20168;-90
2021/07/02 03:08:52;;;;;;;10.27;4.68;;;;;;;;;;6180818;23;20211;-89
2021/07/02 03:11:58;;;;;;;12.43;5.15;;;;;;;;;;6180880;23;20172;-89
2021/07/02 03:15:04;;;;;;;12.20;4.90;;;;;;;;;;6198436;23;20261;-89
2021/07/02 03:18:11;;;;;;;12.25;5.20;;;;;;;;;;6182205;23;20160;-89
2021/07/02 03:21:16;;;;;;;8.68;4.78;;;;;;;;;;6182780;23;20160;-89
2021/07/02 03:24:21;;;;;;;11.75;5.10;;;;;;;;;;6183038;23;20168;-90
2021/07/02 03:27:28;;;;;;;12.15;5.85;;;;;;;;;;6181880;23;20167;-89
2021/07/02 03:30:33;;;;;;;12.15;5.47;;;;;;;;;;6183923;23;20635;-89
2021/07/02 03:33:42;;;;;;;11.18;4.85;;;;;;;;;;6182918;23;20630;-90
2021/07/02 03:36:47;;;;;;;8.63;4.80;;;;;;;;;;6181275;22;20219;-89
2021/07/02 03:39:52;;;;;;;10.35;4.70;;;;;;;;;;6182563;23;20168;-89
2021/07/02 03:42:59;;;;;;;13.27;5.32;;;;;;;;;;6182012;23;20168;-89
2021/07/02 03:46:06;;;;;;;12.40;4.82;;;;;;;;;;6182461;23;20164;-88
2021/07/02 03:49:19;;;;;;;12.95;5.35;;;;;;;;;;6188710;23;20207;-89
2021/07/02 03:52:24;;;;;;;12.02;5.50;;;;;;;;;;6181801;23;20160;-89
2021/07/02 03:55:29;;;;;;;11.40;5.38;;;;;;;;;;6182443;23;20199;-89
2021/07/02 03:58:36;;;;;;;10.70;5.03;;;;;;;;;;6180352;23;20168;-88
2021/07/02 04:01:45;;;;;;;16.15;5.70;;;;;;;;;;6179743;23;20176;-88
2021/07/02 04:04:50;;;;;;;14.18;5.50;;;;;;;;;;6179523;23;20176;-89
2021/07/02 04:07:55;;;;;;;12.38;5.40;;;;;;;;;;6180807;23;20172;-88
2021/07/02 04:11:00;;;;;;;10.63;5.20;;;;;;;;;;6181534;23;20206;-88
2021/07/02 04:14:07;;;;;;;12.70;5.03;;;;;;;;;;6183276;23;20172;-89
2021/07/02 04:17:12;;;;;;;10.48;5.32;;;;;;;;;;6179656;23;20180;-90
2021/07/02 04:20:17;;;;;;;14.27;5.32;;;;;;;;;;6180253;23;20196;-88
2021/07/02 04:23:22;;;;;;;13.75;4.72;;;;;;;;;;6181274;23;20199;-89
2021/07/02 04:26:27;;;;;;;13.35;5.50;;;;;;;;;;6182231;23;20172;-89
2021/07/02 04:29:34;;;;;;;13.90;5.32;;;;;;;;;;6181904;23;20244;-90
2021/07/02 04:32:39;;;;;;;12.88;5.03;;;;;;;;;;6182105;23;20156;-90
2021/07/02 04:35:44;;;;;;;13.50;5.03;;;;;;;;;;6184390;23;20175;-89
2021/07/02 04:38:49;;;;;;;11.48;5.10;;;;;;;;;;6182292;23;20627;-89
2021/07/02 04:41:56;;;;;;;17.33;5.43;;;;;;;;;;6182334;23;20223;-89
2021/07/02 04:45:03;;;;;;;13.85;5.72;;;;;;;;;;6180849;23;20168;-90
2021/07/02 04:48:08;;;;;;;14.02;5.80;;;;;;;;;;6182964;23;20715;-90
2021/07/02 04:51:13;;;;;;;13.50;5.28;;;;;;;;;;6185094;23;20348;-90
2021/07/02 04:54:18;;;;;;;11.82;4.93;;;;;;;;;;6179658;23;20168;-90
2021/07/02 04:57:23;;;;;;;12.85;5.97;;;;;;;;;;6178818;23;20259;-88
2021/07/02 05:00:30;;;;;;;14.05;5.20;;;;;;;;;;6178367;23;20287;-90
2021/07/02 05:03:35;;;;;;;11.20;5.50;;;;;;;;;;6180274;23;20172;-90
2021/07/02 05:06:40;;;;;;;13.10;6.28;;;;;;;;;;6179927;23;20175;-90
2021/07/02 05:09:45;;;;;;;13.93;5.68;;;;;;;;;;6176453;23;20263;-90
2021/07/02 05:12:50;;;;;;;10.75;5.43;;;;;;;;;;6180571;23;20172;-91
2021/07/02 05:15:56;;;;;;;18.45;5.80;;;;;;;;;;6181271;23;20172;-90
2021/07/02 05:19:02;;;;;;;12.95;5.90;;;;;;;;;;6182025;23;20607;-90
2021/07/02 05:22:07;;;;;;;15.27;5.75;;;;;;;;;;6180906;23;20643;-90
2021/07/02 05:25:12;;;;;;;14.77;5.25;;;;;;;;;;6180297;22;20588;-91
2021/07/02 05:28:17;;;;;;;11.93;5.28;;;;;;;;;;6179077;23;20171;-90
2021/07/02 05:31:24;;;;;;;11.55;5.43;;;;;;;;;;6179713;23;20210;-89
2021/07/02 05:34:28;;;;;;;11.32;5.38;;;;;;;;;;6181829;23;20702;-90
2021/07/02 05:37:33;;;;;;;16.58;6.68;;;;;;;;;;6181633;23;20186;-90
2021/07/02 05:40:38;;;;;;;12.60;5.75;;;;;;;;;;6181658;23;20168;-89
2021/07/02 05:43:43;;;;;;;14.55;5.45;;;;;;;;;;6182120;23;20545;-89
2021/07/02 05:46:51;;;;;;;12.65;6.25;;;;;;;;;;6181032;22;20224;-89
2021/07/02 05:49:56;;;;;;;13.90;5.50;;;;;;;;;;6180800;23;20303;-89
2021/07/02 05:53:01;;;;;;;16.67;6.05;;;;;;;;;;6181403;23;20163;-88
2021/07/02 05:56:07;;;;;;;13.57;5.68;;;;;;;;;;6183602;23;20191;-89
2021/07/02 05:59:12;;;;;;;19.42;6.03;;;;;;;;;;6180701;23;20204;-89
2021/07/02 06:02:20;;;;;;;14.48;5.70;;;;;;;;;;6183415;23;20219;-90
2021/07/02 06:05:26;;;;;;;13.38;5.80;;;;;;;;;;6182027;23;20270;-88
2021/07/02 06:08:31;;;;;;;13.20;5.07;;;;;;;;;;6181438;23;20180;-89
2021/07/02 06:11:36;;;;;;;11.75;5.43;;;;;;;;;;6184098;23;20191;-89
2021/07/02 06:14:41;;;;;;;10.23;5.25;;;;;;;;;;6182037;23;20614;-90
2021/07/02 06:17:50;;;;;;;13.65;5.43;;;;;;;;;;6182530;23;20172;-89
2021/07/02 06:20:57;;;;;;;15.30;5.53;;;;;;;;;;6180560;23;20191;-89
2021/07/02 06:24:02;;;;;;;11.23;5.40;;;;;;;;;;6184225;23;20196;-89
2021/07/02 06:27:07;;;;;;;10.30;5.20;;;;;;;;;;6184651;23;20191;-88
2021/07/02 06:30:13;;;;;;;13.48;4.97;;;;;;;;;;6185135;23;20195;-89
2021/07/02 06:33:21;;;;;;;10.32;4.53;;;;;;;;;;6185144;23;20222;-89
2021/07/02 06:36:26;;;;;;;12.25;4.70;;;;;;;;;;6184015;23;20171;-91
2021/07/02 06:39:31;;;;;;;14.13;4.47;;;;;;;;;;6187637;23;20164;-87
2021/07/02 06:42:36;;;;;;;14.63;4.80;;;;;;;;;;6183889;23;20241;-89
2021/07/02 06:45:42;;;;;;;16.88;5.00;;;;;;;;;;6183942;23;20684;-90
2021/07/02 06:48:50;;;;;;;11.68;4.40;;;;;;;;;;6184935;23;20183;-90
2021/07/02 06:51:55;;;;;;;14.82;4.70;;;;;;;;;;6183911;23;20171;-91
2021/07/02 06:55:00;;;;;;;13.15;3.97;;;;;;;;;;6183719;23;20207;-90
2021/07/02 06:58:08;;;;;;;8.43;4.18;;;;;;;;;;6182844;23;20299;-89
2021/07/02 07:01:13;;;;;;;13.93;5.10;;;;;;;;;;6182753;23;20231;-90
2021/07/02 07:04:21;;;;;;;19.85;5.45;;;;;;;;;;6184292;23;20180;-89
2021/07/02 07:07:26;;;;;;;9.05;5.03;;;;;;;;;;6182985;23;20175;-89
2021/07/02 07:10:31;;;;;;;13.90;4.97;;;;;;;;;;6183923;22;20195;-90
2021/07/02 07:13:38;;;;;;;12.05;4.93;;;;;;;;;;6182504;22;20179;-89
2021/07/02 07:16:43;;;;;;;14.10;5.35;;;;;;;;;;6182302;23;20168;-89
2021/07/02 07:19:50;;;;;;;15.27;5.45;;;;;;;;;;6183380;22;20607;-90
2021/07/02 07:22:55;;;;;;;12.20;4.97;;;;;;;;;;6183417;23;20187;-90
2021/07/02 07:26:02;;;;;;;10.30;4.60;;;;;;;;;;6185160;23;20172;-90
2021/07/02 07:29:07;;;;;;;11.63;4.68;;;;;;;;;;6182857;23;20216;-89
2021/07/02 07:32:12;;;;;;;8.77;5.03;;;;;;;;;;6183704;23;20159;-89
2021/07/02 07:35:24;;;;;;;11.02;5.22;;;;;;;;;;6183905;23;20171;-89
2021/07/02 07:38:29;;;;;;;11.07;4.68;;;;;;;;;;6185934;23;20175;-88
2021/07/02 07:41:34;;;;;;;8.13;4.63;;;;;;;;;;6182553;23;20778;-90
2021/07/02 07:44:45;;;;;;;9.80;5.18;;;;;;;;;;6183053;23;20167;-90
2021/07/02 07:47:57;;;;;;;8.57;4.72;;;;;;;;;;6185715;23;20611;-90
2021/07/02 07:51:15;;;;;;;11.45;4.55;;;;;;;;;;6183240;23;20176;-88
2021/07/02 07:54:20;;;;;;;10.32;4.72;;;;;;;;;;6183359;23;20172;-90
2021/07/02 07:57:25;;;;;;;11.10;4.90;;;;;;;;;;6168497;23;20168;-89
2021/07/02 08:00:38;;;;;;;12.15;4.70;;;;;;;;;;6167721;23;20165;-90
2021/07/02 08:03:57;;;;;;;12.27;5.15;;;;;;;;;;6169797;23;20184;-88
2021/07/02 08:07:05;;;;;;;10.48;5.43;;;;;;;;;;6169639;23;20177;-89
2021/07/02 08:10:11;;;;;;;9.25;4.70;;;;;;;;;;6169945;23;20216;-88
2021/07/02 08:13:17;;;;;;;15.15;4.65;;;;;;;;;;6168388;23;20168;-90
2021/07/02 08:16:22;;;;;;;9.60;4.78;;;;;;;;;;6170641;23;20171;-88
2021/07/02 08:19:27;;;;;;;12.68;5.50;;;;;;;;;;6171345;23;20212;-88
2021/07/02 08:22:34;;;;;;;9.65;4.60;;;;;;;;;;6187634;23;20197;-90
2021/07/02 08:25:39;;;;;;;11.82;4.32;;;;;;;;;;6169773;23;20172;-89
2021/07/02 08:32:07;;;;;;;12.35;4.68;;;;;;;;;;6169447;23;20216;-90
2021/07/02 08:35:14;;;;;;;9.38;4.85;;;;;;;;;;6169724;23;20172;-90
2021/07/02 08:38:21;;;;;;;10.15;4.80;;;;;;;;;;6169766;23;20223;-89
2021/07/02 08:41:26;;;;;;;10.38;4.95;;;;;;;;;;6171768;23;20175;-90
2021/07/02 08:44:31;;;;;;;11.02;4.80;;;;;;;;;;6187774;23;20152;-89
2021/07/02 08:47:37;;;;;;;10.95;5.90;;;;;;;;;;6170529;23;20656;-89
2021/07/02 08:50:42;;;;;;;10.23;5.07;;;;;;;;;;6187602;23;20240;-89
2021/07/02 08:53:48;;;;;;;11.32;5.05;;;;;;;;;;6167469;23;20177;-89
2021/07/02 08:56:57;;;;;;;10.90;4.88;;;;;;;;;;6149730;23;20173;-91
2021/07/02 09:00:02;;;;;;;10.25;5.07;;;;;;;;;;6147984;23;20245;-90
2021/07/02 09:03:23;;;;;;;8.68;4.75;;;;;;;;;;6150486;23;20172;-89
2021/07/02 09:06:28;;;;;;;10.18;5.05;;;;;;;;;;6151887;23;20176;-91
2021/07/02 09:09:51;;;;;;;12.77;5.63;;;;;;;;;;6152863;23;20284;-90
2021/07/02 09:12:56;;;;;;;11.73;5.00;;;;;;;;;;6149331;23;20216;-90
2021/07/02 09:16:03;;;;;;;11.95;5.05;;;;;;;;;;6154708;23;20189;-91
2021/07/02 09:19:21;;;;;;;10.98;5.80;;;;;;;;;;6152408;23;20559;-91
2021/07/02 09:22:30;;;;;;;14.20;4.88;;;;;;;;;;6150796;23;20240;-89
2021/07/02 09:25:38;;;;;;;14.73;5.70;;;;;;;;;;6151182;23;20180;-90
2021/07/02 09:28:43;;;;;;;11.65;5.28;;;;;;;;;;6151530;23;20288;-90
2021/07/02 09:31:57;;;;;;;12.73;5.47;;;;;;;;;;6149955;23;20191;-90
2021/07/02 09:35:02;;;;;;;10.30;5.85;;;;;;;;;;6153169;23;20268;-90
2021/07/02 09:38:07;;;;;;;9.90;5.82;;;;;;;;;;6151808;23;20169;-90
2021/07/02 09:41:13;;;;;;;11.88;5.63;;;;;;;;;;6152129;23;20169;-90
2021/07/02 09:44:19;;;;;;;13.73;5.35;;;;;;;;;;6151078;23;20242;-90
2021/07/02 09:47:29;;;;;;;12.38;6.18;;;;;;;;;;6149424;23;20172;-90
2021/07/02 09:50:35;;;;;;;13.70;6.00;;;;;;;;;;6153721;23;20624;-90
2021/07/02 09:53:40;;;;;;;13.50;6.00;;;;;;;;;;6151528;23;20498;-89
2021/07/02 09:56:47;;;;;;;10.45;5.32;;;;;;;;;;6185059;23;20266;-89
2021/07/02 10:00:03;;;;;;;25.75;9.93;;;;;;;;;;6179907;23;20172;-89
2021/07/02 10:03:08;;;;;;;12.63;5.72;;;;;;;;;;6181558;23;20168;-90
2021/07/02 10:06:21;;;;;;;11.07;5.85;;;;;;;;;;6181029;23;20635;-89
2021/07/02 10:09:26;;;;;;;14.30;6.15;;;;;;;;;;6180176;23;20168;-90
2021/07/02 10:12:35;;;;;;;14.57;6.22;;;;;;;;;;6183107;23;20245;-90
2021/07/02 10:15:44;;;;;;;12.35;5.80;;;;;;;;;;6180482;23;20172;-90
2021/07/02 10:18:50;;;;;;;11.20;5.57;;;;;;;;;;6179028;23;20172;-88
2021/07/02 10:21:55;;;;;;;16.45;6.90;;;;;;;;;;6180471;22;20147;-90
2021/07/02 10:25:02;;;;;;;16.48;6.22;;;;;;;;;;6180410;23;20328;-89
2021/07/02 10:28:09;;;;;;;17.90;7.20;;;;;;;;;;6181266;23;20243;-90
2021/07/02 10:31:16;;;;;;;11.60;6.32;;;;;;;;;;6181954;23;20234;-88
2021/07/02 10:34:21;;;;;;;15.00;7.07;;;;;;;;;;6181785;23;20221;-88
2021/07/02 10:37:27;;;;;;;11.20;6.32;;;;;;;;;;6199053;23;20179;-89
2021/07/02 10:40:36;;;;;;;15.88;6.90;;;;;;;;;;6180912;23;20168;-88
2021/07/02 10:44:00;;;;;;;11.07;6.57;;;;;;;;;;6181563;23;20216;-90
2021/07/02 10:47:06;;;;;;;11.95;6.25;;;;;;;;;;6180809;23;20197;-87
2021/07/02 10:50:35;;;;;;;15.48;7.18;;;;;;;;;;6182303;23;20176;-90
2021/07/02 10:53:40;;;;;;;12.48;6.65;;;;;;;;;;6181525;23;20159;-88
2021/07/02 10:57:00;;;;;;;13.40;6.78;;;;;;;;;;6179616;23;20247;-89
2021/07/02 11:00:07;;;;;;;16.20;7.50;;;;;;;;;;6179675;23;20239;-88
2021/07/02 11:03:21;;;;;;;16.80;7.55;;;;;;;;;;6179456;23;20151;-90
2021/07/02 11:06:40;;;;;;;15.40;7.18;;;;;;;;;;6180066;23;20192;-88
2021/07/02 11:09:58;;;;;;;15.02;7.18;;;;;;;;;;6180249;23;20172;-87
2021/07/02 11:13:06;;;;;;;15.90;7.35;;;;;;;;;;6179490;23;20171;-89
2021/07/02 11:16:11;;;;;;;15.45;8.07;;;;;;;;;;6182091;23;20667;-88
2021/07/02 11:19:27;;;;;;;17.80;8.43;;;;;;;;;;6180608;23;20246;-89
2021/07/02 11:22:34;;;;;;;15.52;7.15;;;;;;;;;;6179983;23;20172;-89
2021/07/02 11:25:45;;;;;;;16.25;7.82;;;;;;;;;;6179871;23;20167;-88
2021/07/02 11:28:52;;;;;;;15.20;7.63;;;;;;;;;;6201168;22;20160;-90
2021/07/02 11:31:58;;;;;;;17.92;7.75;;;;;;;;;;6183288;23;20228;-91
2021/07/02 11:35:18;;;;;;;12.35;6.78;;;;;;;;;;6183498;23;20191;-89
2021/07/02 11:38:25;;;;;;;13.50;6.90;;;;;;;;;;6183870;23;20572;-89
2021/07/02 11:41:31;;;;;;;15.43;7.20;;;;;;;;;;6180437;23;20203;-89
2021/07/02 11:44:37;;;;;;;15.85;7.80;;;;;;;;;;6180936;23;20620;-89
2021/07/02 11:47:46;;;;;;;13.27;6.78;;;;;;;;;;6182200;23;20180;-89
2021/07/02 11:50:54;;;;;;;12.80;6.93;;;;;;;;;;6184259;23;20196;-89
2021/07/02 11:53:59;;;;;;;12.73;6.68;;;;;;;;;;6184141;22;20203;-89
2021/07/02 11:57:05;;;;;;;16.48;7.95;;;;;;;;;;6151880;23;20212;-90
2021/07/02 12:00:11;;;;;;;12.32;6.78;;;;;;;;;;6154715;23;20242;-89
2021/07/02 12:03:20;;;;;;;14.23;7.07;;;;;;;;;;6170580;23;20243;-89
2021/07/02 12:06:28;;;;;;;15.88;6.85;;;;;;;;;;6154875;23;20168;-91
2021/07/02 12:09:40;;;;;;;13.00;6.75;;;;;;;;;;6154467;23;20177;-88
2021/07/02 12:12:46;;;;;;;22.98;8.80;;;;;;;;;;6155394;23;20196;-91
2021/07/02 12:16:02;;;;;;;12.80;7.53;;;;;;;;;;6154567;23;20181;-89
2021/07/02 12:19:08;;;;;;;12.95;7.13;;;;;;;;;;6151086;23;20196;-89
2021/07/02 12:22:20;;;;;;;15.40;7.78;;;;;;;;;;6154018;23;20157;-88
2021/07/02 12:25:26;;;;;;;15.60;7.95;;;;;;;;;;6136637;23;20165;-88
2021/07/02 12:28:47;;;;;;;19.17;7.55;;;;;;;;;;6151324;23;20172;-88
2021/07/02 12:31:54;;;;;;;14.48;7.45;;;;;;;;;;6151676;23;20278;-87
2021/07/02 12:34:59;;;;;;;14.68;7.43;;;;;;;;;;6152621;23;20232;-88
2021/07/02 12:38:10;;;;;;;13.55;6.47;;;;;;;;;;6152610;23;20212;-89
2021/07/02 12:41:15;;;;;;;14.40;7.13;;;;;;;;;;6155283;23;20228;-89
2021/07/02 12:44:22;;;;;;;12.55;7.03;;;;;;;;;;6151128;23;20172;-87
2021/07/02 12:47:30;;;;;;;11.98;6.63;;;;;;;;;;6149571;23;20172;-89
2021/07/02 12:50:38;;;;;;;14.00;7.00;;;;;;;;;;6152819;23;20164;-88
2021/07/02 12:57:08;;;;;;;16.33;7.03;;;;;;;;;;6152679;23;20196;-91
2021/07/02 13:00:14;;;;;;;16.63;7.25;;;;;;;;;;6152103;23;20164;-90
2021/07/02 13:03:19;;;;;;;12.20;6.80;;;;;;;;;;6150744;23;20241;-89
2021/07/02 13:06:25;;;;;;;18.75;7.72;;;;;;;;;;6152900;23;20230;-89
2021/07/02 13:09:31;;;;;;;15.43;7.72;;;;;;;;;;6150772;23;20230;-89
2021/07/02 13:12:36;;;;;;;15.73;8.52;;;;;;;;;;6151317;23;20225;-89
2021/07/02 13:15:58;;;;;;;16.42;7.65;;;;;;;;;;6150262;23;20171;-87
2021/07/02 13:19:03;;;;;;;18.90;6.93;;;;;;;;;;6149912;23;20217;-89
2021/07/02 13:22:16;;;;;;;14.77;6.82;;;;;;;;;;6150199;23;20168;-88
2021/07/02 13:25:22;;;;;;;18.70;7.18;;;;;;;;;;6150175;23;20211;-90
2021/07/02 13:28:27;;;;;;;13.07;7.00;;;;;;;;;;6153169;23;20176;-87
2021/07/02 13:31:35;;;;;;;13.05;6.43;;;;;;;;;;6151667;23;20176;-88
2021/07/02 13:34:43;;;;;;;13.52;7.45;;;;;;;;;;6150636;23;20177;-89
2021/07/02 13:37:55;;;;;;;12.43;7.32;;;;;;;;;;6152689;23;20632;-88
2021/07/02 13:41:01;;;;;;;18.38;6.75;;;;;;;;;;6152579;23;20171;-87
2021/07/02 13:44:09;;;;;;;15.00;7.22;;;;;;;;;;6151803;23;20172;-87
2021/07/02 13:47:17;;;;;;;12.07;6.57;;;;;;;;;;6151541;23;20172;-88
2021/07/02 13:50:22;;;;;;;15.98;7.97;;;;;;;;;;6150921;23;20175;-88
2021/07/02 13:53:31;;;;;;;16.00;7.00;;;;;;;;;;6151025;23;20232;-89
2021/07/02 13:56:37;;;;;;;13.07;6.70;;;;;;;;;;6178413;23;20731;-89
2021/07/02 13:59:42;;;;;;;13.57;6.22;;;;;;;;;;6179463;23;20207;-89
2021/07/02 14:02:47;;;;;;;13.50;6.80;;;;;;;;;;6180768;23;20168;-87
2021/07/02 14:05:52;;;;;;;13.95;6.75;;;;;;;;;;6181443;23;20571;-88
2021/07/02 14:08:57;;;;;;;12.68;6.40;;;;;;;;;;6176972;23;20251;-89
2021/07/02 14:12:05;;;;;;;12.18;6.38;;;;;;;;;;6178798;22;20203;-88
2021/07/02 14:15:11;;;;;;;16.05;7.10;;;;;;;;;;6179615;23;20215;-88
2021/07/02 14:18:17;;;;;;;12.50;6.85;;;;;;;;;;6178951;23;20176;-89
2021/07/02 14:21:22;;;;;;;12.15;6.68;;;;;;;;;;6180362;23;20212;-90
2021/07/02 14:24:30;;;;;;;16.35;6.47;;;;;;;;;;6179765;23;20167;-87
2021/07/02 14:27:36;;;;;;;14.85;7.00;;;;;;;;;;6178832;23;20168;-87
2021/07/02 14:30:41;;;;;;;13.48;7.03;;;;;;;;;;6179878;23;20174;-88
2021/07/02 14:33:47;;;;;;;12.10;5.45;;;;;;;;;;6179462;23;20295;-87
2021/07/02 14:36:52;;;;;;;11.48;6.72;;;;;;;;;;6179234;22;20176;-88
2021/07/02 14:39:57;;;;;;;13.13;6.68;;;;;;;;;;6179143;23;20250;-88
2021/07/02 14:43:04;;;;;;;10.25;5.80;;;;;;;;;;6179749;23;20315;-89
2021/07/02 14:46:09;;;;;;;14.15;6.70;;;;;;;;;;6180893;23;20176;-89
2021/07/02 14:49:16;;;;;;;11.82;6.45;;;;;;;;;;6180367;23;20168;-88
2021/07/02 14:52:22;;;;;;;11.93;6.70;;;;;;;;;;6183068;23;20200;-88
2021/07/02 14:55:32;;;;;;;13.95;6.05;;;;;;;;;;6187677;23;20195;-88
2021/07/02 14:58:39;;;;;;;10.25;5.80;;;;;;;;;;6182655;23;20159;-88
2021/07/02 15:01:46;;;;;;;10.15;5.93;;;;;;;;;;6198640;23;20187;-87
2021/07/02 15:04:51;;;;;;;10.25;5.43;;;;;;;;;;6181224;23;20283;-88
2021/07/02 15:07:56;;;;;;;12.15;6.10;;;;;;;;;;6182140;23;20179;-88
2021/07/02 15:11:01;;;;;;;13.70;6.93;;;;;;;;;;6182749;23;20167;-89
2021/07/02 15:14:07;;;;;;;12.73;6.88;;;;;;;;;;6182764;23;20195;-89
2021/07/02 15:17:12;;;;;;;13.82;7.07;;;;;;;;;;6181922;23;20251;-88
2021/07/02 15:20:20;;;;;;;12.18;6.20;;;;;;;;;;6181962;22;20168;-89
2021/07/02 15:23:27;;;;;;;14.20;7.22;;;;;;;;;;6181230;23;20615;-89
2021/07/02 15:26:32;;;;;;;11.45;6.15;;;;;;;;;;6183277;23;20215;-91
2021/07/02 15:30:00;;;;;;;15.57;8.05;;;;;;;;;;6182874;23;20168;-89
2021/07/02 15:33:06;;;;;;;12.55;6.28;;;;;;;;;;6180475;23;20319;-88
2021/07/02 15:36:12;;;;;;;12.65;5.82;;;;;;;;;;6183823;23;20176;-89
2021/07/02 15:39:18;;;;;;;12.52;5.70;;;;;;;;;;6181539;23;20631;-89
2021/07/02 15:42:23;;;;;;;10.88;6.30;;;;;;;;;;6181666;23;20168;-90
2021/07/02 15:45:30;;;;;;;11.95;6.18;;;;;;;;;;6180647;23;20219;-88
2021/07/02 15:48:35;;;;;;;10.40;5.75;;;;;;;;;;6182770;23;20172;-88
2021/07/02 15:51:41;;;;;;;11.25;5.63;;;;;;;;;;6179335;23;20172;-88
2021/07/02 15:54:46;;;;;;;13.77;5.78;;;;;;;;;;6180987;23;20248;-89
2021/07/02 15:57:51;;;;;;;10.15;5.30;;;;;;;;;;6179413;23;20491;-89
2021/07/02 16:01:09;;;;;;;8.57;5.32;;;;;;;;;;6183875;23;20281;-89
2021/07/02 16:04:15;;;;;;;12.13;6.03;;;;;;;;;;6181679;23;20172;-88
2021/07/02 16:07:20;;;;;;;10.90;5.95;;;;;;;;;;6181786;23;20168;-90
2021/07/02 16:10:25;;;;;;;9.13;5.85;;;;;;;;;;6181647;23;20160;-90
2021/07/02 16:13:30;;;;;;;13.52;6.20;;;;;;;;;;6181077;23;20194;-88
2021/07/02 16:16:39;;;;;;;12.40;7.07;;;;;;;;;;6195907;22;20239;-88
2021/07/02 16:20:10;;;;;;;11.15;6.40;;;;;;;;;;6179569;23;20218;-90
2021/07/02 16:23:15;;;;;;;11.65;5.72;;;;;;;;;;6182184;23;20160;-88
2021/07/02 16:26:20;;;;;;;12.15;6.00;;;;;;;;;;6181006;22;20168;-87
2021/07/02 16:29:25;;;;;;;12.00;6.00;;;;;;;;;;6180159;23;20227;-89
2021/07/02 16:32:32;;;;;;;11.13;6.05;;;;;;;;;;6181753;23;20195;-90
2021/07/02 16:35:37;;;;;;;13.38;6.35;;;;;;;;;;6180990;23;20168;-89
2021/07/02 16:38:42;;;;;;;13.57;5.80;;;;;;;;;;6179290;23;20175;-90
2021/07/02 16:41:48;;;;;;;11.32;6.28;;;;;;;;;;6179605;23;20243;-88
2021/07/02 16:44:54;;;;;;;9.00;5.68;;;;;;;;;;6181138;23;20176;-88
2021/07/02 16:48:01;;;;;;;13.55;6.10;;;;;;;;;;6180173;23;20172;-88
2021/07/02 16:51:07;;;;;;;11.20;5.25;;;;;;;;;;6181801;23;20175;-89
2021/07/02 16:54:12;;;;;;;14.00;6.78;;;;;;;;;;6181885;23;20470;-89
2021/07/02 16:57:17;;;;;;;16.30;7.63;;;;;;;;;;6181341;23;20180;-88
2021/07/02 17:00:22;;;;;;;15.07;6.78;;;;;;;;;;6179570;23;20623;-88
2021/07/02 17:03:31;;;;;;;12.40;6.45;;;;;;;;;;6200282;23;20171;-90
2021/07/02 17:06:36;;;;;;;11.93;6.35;;;;;;;;;;6181530;23;20163;-89
2021/07/02 17:09:41;;;;;;;17.77;6.90;;;;;;;;;;6182254;23;20187;-89
2021/07/02 17:12:47;;;;;;;12.18;6.10;;;;;;;;;;6182071;23;20725;-90
2021/07/02 17:15:52;;;;;;;11.60;6.13;;;;;;;;;;6182244;23;20171;-90
2021/07/02 17:18:59;;;;;;;16.52;6.00;;;;;;;;;;6181258;23;20188;-89
2021/07/02 17:22:05;;;;;;;11.77;5.97;;;;;;;;;;6181218;23;20172;-88
2021/07/02 17:25:13;;;;;;;11.80;6.05;;;;;;;;;;6180899;23;20219;-89
2021/07/02 17:28:19;;;;;;;10.95;5.90;;;;;;;;;;6182063;23;20179;-89
2021/07/02 17:31:24;;;;;;;17.85;6.70;;;;;;;;;;6183111;23;20168;-88
2021/07/02 17:34:30;;;;;;;13.32;6.82;;;;;;;;;;6200639;23;20195;-90
2021/07/02 17:37:36;;;;;;;14.63;7.18;;;;;;;;;;6181965;23;20172;-87
2021/07/02 17:40:40;;;;;;;15.45;7.20;;;;;;;;;;6180719;23;20292;-88
2021/07/02 17:47:05;;;;;;;11.63;7.07;;;;;;;;;;6183219;23;20243;-89
2021/07/02 17:50:14;;;;;;;10.93;6.75;;;;;;;;;;6182333;23;20179;-88
2021/07/02 17:53:19;;;;;;;13.75;7.88;;;;;;;;;;6180859;23;20495;-90
2021/07/02 17:56:27;;;;;;;13.48;6.65;;;;;;;;;;6199417;23;20239;-89
2021/07/02 17:59:36;;;;;;;14.55;7.22;;;;;;;;;;6182741;23;20160;-88
2021/07/02 18:02:51;;;;;;;17.77;6.80;;;;;;;;;;6181262;23;20233;-88
2021/07/02 18:05:58;;;;;;;14.88;7.10;;;;;;;;;;6183923;23;20220;-89
2021/07/02 18:09:04;;;;;;;14.70;7.28;;;;;;;;;;6181484;23;20172;-89
2021/07/02 18:12:10;;;;;;;16.25;7.25;;;;;;;;;;6181564;22;20176;-89
2021/07/02 18:15:15;;;;;;;15.27;7.88;;;;;;;;;;6180281;23;20183;-89
2021/07/02 18:18:21;;;;;;;15.45;7.80;;;;;;;;;;6180660;23;20164;-88
2021/07/02 18:21:28;;;;;;;11.00;7.10;;;;;;;;;;6181111;23;20159;-90
2021/07/02 18:24:32;;;;;;;12.93;7.28;;;;;;;;;;6181600;23;20247;-90
2021/07/02 18:27:39;;;;;;;18.23;7.63;;;;;;;;;;6179028;23;20292;-89
2021/07/02 18:30:45;;;;;;;14.05;7.07;;;;;;;;;;6179977;23;20241;-90
2021/07/02 18:34:07;;;;;;;17.52;7.78;;;;;;;;;;6181371;23;20191;-91
2021/07/02 18:37:13;;;;;;;18.33;7.82;;;;;;;;;;6181749;23;20235;-89